sensor_id;sensor_type;location;lat;lon;timestamp;P1;durP1;ratioP1;P2;durP2;ratioP2
60416;SDS011;46263;44.726;10.396;2023-09-19T00:00:41;12.82;;;4.00;;
60416;SDS011;46263;44.726;10.396;2023-09-19T00:03:09;13.75;;;4.63;;
60416;SDS011;46263;44.726;10.396;2023-09-19T00:05:37;19.77;;;4.05;;
60416;SDS011;46263;44.726;10.396;2023-09-19T00:08:03;14.48;;;5.10;;
60416;SDS011;46263;44.726;10.396;2023-09-19T00:10:29;14.30;;;4.93;;
60416;SDS011;46263;44.726;10.396;2023-09-19T00:13:04;15.45;;;4.55;;
60416;SDS011;46263;44.726;10.396;2023-09-19T00:15:37;11.98;;;4.50;;
60416;SDS011;46263;44.726;10.396;2023-09-19T00:18:05;12.23;;;4.63;;
60416;SDS011;46263;44.726;10.396;2023-09-19T00:20:32;10.43;;;4.53;;
60416;SDS011;46263;44.726;10.396;2023-09-19T00:22:59;15.93;;;4.93;;
60416;SDS011;46263;44.726;10.396;2023-09-19T00:25:33;13.18;;;4.28;;
60416;SDS011;46263;44.726;10.396;2023-09-19T00:28:00;12.85;;;4.75;;
60416;SDS011;46263;44.726;10.396;2023-09-19T00:30:26;13.90;;;4.60;;
60416;SDS011;46263;44.726;10.396;2023-09-19T00:32:51;15.60;;;4.57;;
60416;SDS011;46263;44.726;10.396;2023-09-19T00:35:18;14.23;;;4.85;;
60416;SDS011;46263;44.726;10.396;2023-09-19T00:37:49;11.60;;;4.38;;
60416;SDS011;46263;44.726;10.396;2023-09-19T00:40:15;11.80;;;4.32;;
60416;SDS011;46263;44.726;10.396;2023-09-19T00:42:45;12.88;;;4.45;;
60416;SDS011;46263;44.726;10.396;2023-09-19T00:45:12;15.45;;;4.28;;
60416;SDS011;46263;44.726;10.396;2023-09-19T00:47:39;17.38;;;5.28;;
60416;SDS011;46263;44.726;10.396;2023-09-19T00:50:07;13.32;;;4.00;;
60416;SDS011;46263;44.726;10.396;2023-09-19T00:52:34;14.88;;;4.57;;
60416;SDS011;46263;44.726;10.396;2023-09-19T00:55:03;14.52;;;4.60;;
60416;SDS011;46263;44.726;10.396;2023-09-19T00:57:30;14.00;;;4.60;;
60416;SDS011;46263;44.726;10.396;2023-09-19T00:59:57;14.60;;;4.55;;
60416;SDS011;46263;44.726;10.396;2023-09-19T01:02:24;15.70;;;4.55;;
60416;SDS011;46263;44.726;10.396;2023-09-19T01:04:53;13.40;;;4.40;;
60416;SDS011;46263;44.726;10.396;2023-09-19T01:07:19;14.80;;;4.47;;
60416;SDS011;46263;44.726;10.396;2023-09-19T01:09:47;11.35;;;4.85;;
60416;SDS011;46263;44.726;10.396;2023-09-19T01:12:13;11.60;;;4.20;;
60416;SDS011;46263;44.726;10.396;2023-09-19T01:14:55;11.68;;;4.55;;
60416;SDS011;46263;44.726;10.396;2023-09-19T01:17:31;11.40;;;4.78;;
60416;SDS011;46263;44.726;10.396;2023-09-19T01:23:00;12.05;;;4.50;;
60416;SDS011;46263;44.726;10.396;2023-09-19T01:26:02;14.25;;;5.35;;
60416;SDS011;46263;44.726;10.396;2023-09-19T01:28:51;12.30;;;4.57;;
60416;SDS011;46263;44.726;10.396;2023-09-19T01:31:44;12.20;;;5.63;;
60416;SDS011;46263;44.726;10.396;2023-09-19T01:34:11;12.45;;;5.28;;
60416;SDS011;46263;44.726;10.396;2023-09-19T01:36:37;10.20;;;5.25;;
60416;SDS011;46263;44.726;10.396;2023-09-19T01:39:10;13.20;;;5.00;;
60416;SDS011;46263;44.726;10.396;2023-09-19T01:41:45;13.25;;;5.13;;
60416;SDS011;46263;44.726;10.396;2023-09-19T01:45:02;16.77;;;5.68;;
60416;SDS011;46263;44.726;10.396;2023-09-19T01:47:46;19.25;;;5.85;;
60416;SDS011;46263;44.726;10.396;2023-09-19T01:52:57;15.50;;;5.10;;
60416;SDS011;46263;44.726;10.396;2023-09-19T01:55:29;14.32;;;6.07;;
60416;SDS011;46263;44.726;10.396;2023-09-19T01:58:06;13.20;;;4.78;;
60416;SDS011;46263;44.726;10.396;2023-09-19T02:00:37;20.83;;;4.90;;
60416;SDS011;46263;44.726;10.396;2023-09-19T02:03:08;18.00;;;4.93;;
60416;SDS011;46263;44.726;10.396;2023-09-19T02:05:34;12.50;;;4.45;;
60416;SDS011;46263;44.726;10.396;2023-09-19T02:08:00;12.95;;;4.45;;
60416;SDS011;46263;44.726;10.396;2023-09-19T02:10:25;9.90;;;4.30;;
60416;SDS011;46263;44.726;10.396;2023-09-19T02:12:51;14.02;;;4.78;;
60416;SDS011;46263;44.726;10.396;2023-09-19T02:15:16;18.48;;;4.82;;
60416;SDS011;46263;44.726;10.396;2023-09-19T02:17:42;10.70;;;4.75;;
60416;SDS011;46263;44.726;10.396;2023-09-19T02:20:09;12.38;;;4.80;;
60416;SDS011;46263;44.726;10.396;2023-09-19T02:22:40;18.40;;;5.50;;
60416;SDS011;46263;44.726;10.396;2023-09-19T02:25:06;13.68;;;4.90;;
60416;SDS011;46263;44.726;10.396;2023-09-19T02:27:33;16.15;;;4.18;;
60416;SDS011;46263;44.726;10.396;2023-09-19T02:29:59;11.63;;;4.85;;
60416;SDS011;46263;44.726;10.396;2023-09-19T02:32:27;14.85;;;5.00;;
60416;SDS011;46263;44.726;10.396;2023-09-19T02:34:55;13.40;;;5.03;;
60416;SDS011;46263;44.726;10.396;2023-09-19T02:37:20;16.30;;;4.80;;
60416;SDS011;46263;44.726;10.396;2023-09-19T02:39:46;12.05;;;4.90;;
60416;SDS011;46263;44.726;10.396;2023-09-19T02:42:11;12.88;;;5.28;;
60416;SDS011;46263;44.726;10.396;2023-09-19T02:44:37;13.63;;;5.15;;
60416;SDS011;46263;44.726;10.396;2023-09-19T02:47:03;13.57;;;5.80;;
60416;SDS011;46263;44.726;10.396;2023-09-19T02:49:29;19.90;;;6.50;;
60416;SDS011;46263;44.726;10.396;2023-09-19T02:51:54;14.30;;;6.22;;
60416;SDS011;46263;44.726;10.396;2023-09-19T02:54:19;12.15;;;6.20;;
60416;SDS011;46263;44.726;10.396;2023-09-19T02:56:45;16.20;;;5.18;;
60416;SDS011;46263;44.726;10.396;2023-09-19T02:59:12;17.08;;;6.22;;
60416;SDS011;46263;44.726;10.396;2023-09-19T03:01:37;16.38;;;6.00;;
60416;SDS011;46263;44.726;10.396;2023-09-19T03:04:03;15.48;;;5.88;;
60416;SDS011;46263;44.726;10.396;2023-09-19T03:06:32;14.65;;;5.95;;
60416;SDS011;46263;44.726;10.396;2023-09-19T03:08:57;18.88;;;6.10;;
60416;SDS011;46263;44.726;10.396;2023-09-19T03:11:25;19.75;;;6.45;;
60416;SDS011;46263;44.726;10.396;2023-09-19T03:13:51;20.55;;;6.32;;
60416;SDS011;46263;44.726;10.396;2023-09-19T03:16:17;20.45;;;6.47;;
60416;SDS011;46263;44.726;10.396;2023-09-19T03:18:44;17.13;;;6.50;;
60416;SDS011;46263;44.726;10.396;2023-09-19T03:21:10;20.90;;;6.65;;
60416;SDS011;46263;44.726;10.396;2023-09-19T03:23:35;15.43;;;7.10;;
60416;SDS011;46263;44.726;10.396;2023-09-19T03:26:01;17.75;;;6.70;;
60416;SDS011;46263;44.726;10.396;2023-09-19T03:28:26;11.38;;;6.25;;
60416;SDS011;46263;44.726;10.396;2023-09-19T03:30:59;18.83;;;6.57;;
60416;SDS011;46263;44.726;10.396;2023-09-19T03:33:25;15.13;;;7.35;;
60416;SDS011;46263;44.726;10.396;2023-09-19T03:35:54;15.77;;;6.88;;
60416;SDS011;46263;44.726;10.396;2023-09-19T03:38:20;16.65;;;6.75;;
60416;SDS011;46263;44.726;10.396;2023-09-19T03:40:47;17.10;;;6.75;;
60416;SDS011;46263;44.726;10.396;2023-09-19T03:43:12;11.90;;;6.57;;
60416;SDS011;46263;44.726;10.396;2023-09-19T03:45:38;15.63;;;6.80;;
60416;SDS011;46263;44.726;10.396;2023-09-19T03:48:12;14.30;;;6.35;;
60416;SDS011;46263;44.726;10.396;2023-09-19T03:50:38;10.82;;;7.25;;
60416;SDS011;46263;44.726;10.396;2023-09-19T03:53:04;15.80;;;6.38;;
60416;SDS011;46263;44.726;10.396;2023-09-19T03:55:30;11.20;;;5.93;;
60416;SDS011;46263;44.726;10.396;2023-09-19T03:57:55;14.63;;;8.48;;
60416;SDS011;46263;44.726;10.396;2023-09-19T04:00:21;18.60;;;7.03;;
60416;SDS011;46263;44.726;10.396;2023-09-19T04:02:49;18.35;;;7.18;;
60416;SDS011;46263;44.726;10.396;2023-09-19T04:05:17;18.83;;;7.10;;
60416;SDS011;46263;44.726;10.396;2023-09-19T04:07:42;19.33;;;7.05;;
60416;SDS011;46263;44.726;10.396;2023-09-19T04:10:08;18.42;;;7.25;;
60416;SDS011;46263;44.726;10.396;2023-09-19T04:12:36;20.52;;;7.50;;
60416;SDS011;46263;44.726;10.396;2023-09-19T04:15:03;17.95;;;7.05;;
60416;SDS011;46263;44.726;10.396;2023-09-19T04:17:30;16.80;;;7.10;;
60416;SDS011;46263;44.726;10.396;2023-09-19T04:19:58;15.95;;;6.55;;
60416;SDS011;46263;44.726;10.396;2023-09-19T04:22:23;13.50;;;6.38;;
60416;SDS011;46263;44.726;10.396;2023-09-19T04:24:49;14.70;;;6.88;;
60416;SDS011;46263;44.726;10.396;2023-09-19T04:27:14;14.25;;;7.05;;
60416;SDS011;46263;44.726;10.396;2023-09-19T04:29:39;13.43;;;6.40;;
60416;SDS011;46263;44.726;10.396;2023-09-19T04:32:06;20.73;;;6.93;;
60416;SDS011;46263;44.726;10.396;2023-09-19T04:34:32;20.23;;;6.88;;
60416;SDS011;46263;44.726;10.396;2023-09-19T04:36:59;17.08;;;6.25;;
60416;SDS011;46263;44.726;10.396;2023-09-19T04:39:26;17.20;;;5.65;;
60416;SDS011;46263;44.726;10.396;2023-09-19T04:41:52;13.00;;;6.03;;
60416;SDS011;46263;44.726;10.396;2023-09-19T04:44:18;10.48;;;5.75;;
60416;SDS011;46263;44.726;10.396;2023-09-19T04:46:43;13.63;;;5.90;;
60416;SDS011;46263;44.726;10.396;2023-09-19T04:49:09;11.80;;;5.75;;
60416;SDS011;46263;44.726;10.396;2023-09-19T04:51:35;8.98;;;5.22;;
60416;SDS011;46263;44.726;10.396;2023-09-19T04:54:01;14.43;;;6.00;;
60416;SDS011;46263;44.726;10.396;2023-09-19T04:56:27;14.30;;;6.43;;
60416;SDS011;46263;44.726;10.396;2023-09-19T04:58:57;10.60;;;6.35;;
60416;SDS011;46263;44.726;10.396;2023-09-19T05:01:23;16.15;;;6.45;;
60416;SDS011;46263;44.726;10.396;2023-09-19T05:03:49;20.08;;;7.13;;
60416;SDS011;46263;44.726;10.396;2023-09-19T05:06:18;15.40;;;6.80;;
60416;SDS011;46263;44.726;10.396;2023-09-19T05:08:47;12.85;;;7.40;;
60416;SDS011;46263;44.726;10.396;2023-09-19T05:11:21;19.88;;;7.63;;
60416;SDS011;46263;44.726;10.396;2023-09-19T05:13:47;17.58;;;8.20;;
60416;SDS011;46263;44.726;10.396;2023-09-19T05:16:14;17.55;;;7.82;;
60416;SDS011;46263;44.726;10.396;2023-09-19T05:18:41;15.20;;;8.07;;
60416;SDS011;46263;44.726;10.396;2023-09-19T05:21:07;16.23;;;7.55;;
60416;SDS011;46263;44.726;10.396;2023-09-19T05:23:33;16.52;;;7.93;;
60416;SDS011;46263;44.726;10.396;2023-09-19T05:25:58;11.02;;;7.53;;
60416;SDS011;46263;44.726;10.396;2023-09-19T05:28:25;16.88;;;8.48;;
60416;SDS011;46263;44.726;10.396;2023-09-19T05:30:52;15.52;;;7.75;;
60416;SDS011;46263;44.726;10.396;2023-09-19T05:33:18;18.98;;;8.48;;
60416;SDS011;46263;44.726;10.396;2023-09-19T05:35:44;14.80;;;9.15;;
60416;SDS011;46263;44.726;10.396;2023-09-19T05:38:12;19.83;;;9.82;;
60416;SDS011;46263;44.726;10.396;2023-09-19T05:40:39;21.33;;;10.38;;
60416;SDS011;46263;44.726;10.396;2023-09-19T05:43:07;17.27;;;9.98;;
60416;SDS011;46263;44.726;10.396;2023-09-19T05:45:33;17.45;;;10.23;;
60416;SDS011;46263;44.726;10.396;2023-09-19T05:48:07;17.45;;;9.43;;
60416;SDS011;46263;44.726;10.396;2023-09-19T05:50:34;21.38;;;10.18;;
60416;SDS011;46263;44.726;10.396;2023-09-19T05:52:59;18.55;;;10.82;;
60416;SDS011;46263;44.726;10.396;2023-09-19T05:55:24;17.42;;;10.38;;
60416;SDS011;46263;44.726;10.396;2023-09-19T05:57:50;19.88;;;11.68;;
60416;SDS011;46263;44.726;10.396;2023-09-19T06:00:17;20.17;;;10.75;;
60416;SDS011;46263;44.726;10.396;2023-09-19T06:05:18;23.52;;;12.60;;
60416;SDS011;46263;44.726;10.396;2023-09-19T06:07:45;19.42;;;10.93;;
60416;SDS011;46263;44.726;10.396;2023-09-19T06:10:11;15.75;;;11.52;;
60416;SDS011;46263;44.726;10.396;2023-09-19T06:12:38;20.75;;;12.15;;
60416;SDS011;46263;44.726;10.396;2023-09-19T06:15:04;23.20;;;12.20;;
60416;SDS011;46263;44.726;10.396;2023-09-19T06:17:31;24.80;;;12.65;;
60416;SDS011;46263;44.726;10.396;2023-09-19T06:19:56;18.23;;;12.75;;
60416;SDS011;46263;44.726;10.396;2023-09-19T06:22:21;29.75;;;13.07;;
60416;SDS011;46263;44.726;10.396;2023-09-19T06:24:48;21.92;;;13.38;;
60416;SDS011;46263;44.726;10.396;2023-09-19T06:27:14;25.13;;;13.73;;
60416;SDS011;46263;44.726;10.396;2023-09-19T06:29:39;23.52;;;13.02;;
60416;SDS011;46263;44.726;10.396;2023-09-19T06:32:08;21.27;;;13.48;;
60416;SDS011;46263;44.726;10.396;2023-09-19T06:34:34;25.08;;;14.23;;
60416;SDS011;46263;44.726;10.396;2023-09-19T06:36:59;23.75;;;14.40;;
60416;SDS011;46263;44.726;10.396;2023-09-19T06:39:25;25.48;;;15.23;;
60416;SDS011;46263;44.726;10.396;2023-09-19T06:41:51;30.98;;;15.98;;
60416;SDS011;46263;44.726;10.396;2023-09-19T06:44:18;25.95;;;15.60;;
60416;SDS011;46263;44.726;10.396;2023-09-19T06:46:46;24.05;;;16.27;;
60416;SDS011;46263;44.726;10.396;2023-09-19T06:49:15;31.20;;;14.73;;
60416;SDS011;46263;44.726;10.396;2023-09-19T06:51:40;29.00;;;16.42;;
60416;SDS011;46263;44.726;10.396;2023-09-19T06:54:07;27.63;;;15.73;;
60416;SDS011;46263;44.726;10.396;2023-09-19T06:56:32;31.15;;;16.95;;
60416;SDS011;46263;44.726;10.396;2023-09-19T06:58:58;27.77;;;16.95;;
60416;SDS011;46263;44.726;10.396;2023-09-19T07:01:23;28.52;;;17.20;;
60416;SDS011;46263;44.726;10.396;2023-09-19T07:03:50;28.42;;;16.02;;
60416;SDS011;46263;44.726;10.396;2023-09-19T07:06:15;31.88;;;16.38;;
60416;SDS011;46263;44.726;10.396;2023-09-19T07:08:41;26.35;;;16.02;;
60416;SDS011;46263;44.726;10.396;2023-09-19T07:11:07;30.38;;;18.35;;
60416;SDS011;46263;44.726;10.396;2023-09-19T07:13:33;28.35;;;17.02;;
60416;SDS011;46263;44.726;10.396;2023-09-19T07:15:59;28.02;;;16.35;;
60416;SDS011;46263;44.726;10.396;2023-09-19T07:18:24;31.10;;;16.83;;
60416;SDS011;46263;44.726;10.396;2023-09-19T07:20:50;32.00;;;18.92;;
60416;SDS011;46263;44.726;10.396;2023-09-19T07:23:19;25.80;;;17.70;;
60416;SDS011;46263;44.726;10.396;2023-09-19T07:25:47;33.67;;;17.35;;
60416;SDS011;46263;44.726;10.396;2023-09-19T07:28:13;30.58;;;18.38;;
60416;SDS011;46263;44.726;10.396;2023-09-19T07:30:39;29.90;;;17.90;;
60416;SDS011;46263;44.726;10.396;2023-09-19T07:33:06;35.20;;;17.58;;
60416;SDS011;46263;44.726;10.396;2023-09-19T07:35:32;32.17;;;16.92;;
60416;SDS011;46263;44.726;10.396;2023-09-19T07:37:58;29.48;;;16.30;;
60416;SDS011;46263;44.726;10.396;2023-09-19T07:40:26;29.15;;;18.00;;
60416;SDS011;46263;44.726;10.396;2023-09-19T07:42:54;28.52;;;17.92;;
60416;SDS011;46263;44.726;10.396;2023-09-19T07:45:26;35.15;;;18.40;;
60416;SDS011;46263;44.726;10.396;2023-09-19T07:48:01;28.92;;;17.15;;
60416;SDS011;46263;44.726;10.396;2023-09-19T07:50:29;31.65;;;18.23;;
60416;SDS011;46263;44.726;10.396;2023-09-19T07:52:55;26.88;;;16.45;;
60416;SDS011;46263;44.726;10.396;2023-09-19T07:55:21;25.38;;;16.75;;
60416;SDS011;46263;44.726;10.396;2023-09-19T07:57:51;24.67;;;17.08;;
60416;SDS011;46263;44.726;10.396;2023-09-19T08:00:17;28.67;;;16.30;;
60416;SDS011;46263;44.726;10.396;2023-09-19T08:02:43;27.15;;;17.42;;
60416;SDS011;46263;44.726;10.396;2023-09-19T08:05:09;29.10;;;17.88;;
60416;SDS011;46263;44.726;10.396;2023-09-19T08:07:37;33.17;;;17.95;;
60416;SDS011;46263;44.726;10.396;2023-09-19T08:10:06;25.40;;;15.48;;
60416;SDS011;46263;44.726;10.396;2023-09-19T08:12:40;29.20;;;15.98;;
60416;SDS011;46263;44.726;10.396;2023-09-19T08:15:12;28.10;;;15.68;;
60416;SDS011;46263;44.726;10.396;2023-09-19T08:17:39;31.65;;;16.40;;
60416;SDS011;46263;44.726;10.396;2023-09-19T08:20:05;30.40;;;17.23;;
60416;SDS011;46263;44.726;10.396;2023-09-19T08:22:31;32.30;;;18.65;;
60416;SDS011;46263;44.726;10.396;2023-09-19T08:24:57;22.75;;;15.95;;
60416;SDS011;46263;44.726;10.396;2023-09-19T08:27:23;22.90;;;16.25;;
60416;SDS011;46263;44.726;10.396;2023-09-19T08:29:52;27.40;;;17.92;;
60416;SDS011;46263;44.726;10.396;2023-09-19T08:32:18;27.63;;;16.92;;
60416;SDS011;46263;44.726;10.396;2023-09-19T08:34:48;23.10;;;15.30;;
60416;SDS011;46263;44.726;10.396;2023-09-19T08:37:14;23.88;;;14.77;;
60416;SDS011;46263;44.726;10.396;2023-09-19T08:39:40;21.60;;;13.27;;
60416;SDS011;46263;44.726;10.396;2023-09-19T08:42:06;23.65;;;13.65;;
60416;SDS011;46263;44.726;10.396;2023-09-19T08:44:35;24.02;;;14.82;;
60416;SDS011;46263;44.726;10.396;2023-09-19T08:47:06;21.67;;;13.65;;
60416;SDS011;46263;44.726;10.396;2023-09-19T08:49:41;24.27;;;14.77;;
60416;SDS011;46263;44.726;10.396;2023-09-19T08:52:25;21.58;;;14.13;;
60416;SDS011;46263;44.726;10.396;2023-09-19T08:54:54;27.88;;;12.90;;
60416;SDS011;46263;44.726;10.396;2023-09-19T08:57:27;25.77;;;13.10;;
60416;SDS011;46263;44.726;10.396;2023-09-19T08:59:54;24.02;;;13.52;;
60416;SDS011;46263;44.726;10.396;2023-09-19T09:02:21;21.75;;;12.90;;
60416;SDS011;46263;44.726;10.396;2023-09-19T09:04:48;27.88;;;12.48;;
60416;SDS011;46263;44.726;10.396;2023-09-19T09:07:15;18.98;;;14.32;;
60416;SDS011;46263;44.726;10.396;2023-09-19T09:09:44;23.42;;;12.32;;
60416;SDS011;46263;44.726;10.396;2023-09-19T09:12:13;16.90;;;10.38;;
60416;SDS011;46263;44.726;10.396;2023-09-19T09:14:40;15.95;;;10.10;;
60416;SDS011;46263;44.726;10.396;2023-09-19T09:17:10;16.45;;;10.25;;
60416;SDS011;46263;44.726;10.396;2023-09-19T09:19:35;27.33;;;14.93;;
60416;SDS011;46263;44.726;10.396;2023-09-19T09:22:08;25.05;;;14.35;;
60416;SDS011;46263;44.726;10.396;2023-09-19T09:24:35;21.38;;;13.85;;
60416;SDS011;46263;44.726;10.396;2023-09-19T09:27:04;21.88;;;12.98;;
60416;SDS011;46263;44.726;10.396;2023-09-19T09:29:48;20.65;;;13.13;;
60416;SDS011;46263;44.726;10.396;2023-09-19T09:34:45;20.73;;;12.13;;
60416;SDS011;46263;44.726;10.396;2023-09-19T09:37:14;22.00;;;12.25;;
60416;SDS011;46263;44.726;10.396;2023-09-19T09:39:40;21.67;;;12.48;;
60416;SDS011;46263;44.726;10.396;2023-09-19T09:42:32;21.67;;;12.30;;
60416;SDS011;46263;44.726;10.396;2023-09-19T09:45:19;26.30;;;12.40;;
60416;SDS011;46263;44.726;10.396;2023-09-19T09:47:57;20.48;;;13.52;;
60416;SDS011;46263;44.726;10.396;2023-09-19T09:50:31;23.90;;;12.80;;
60416;SDS011;46263;44.726;10.396;2023-09-19T09:53:28;21.50;;;12.20;;
60416;SDS011;46263;44.726;10.396;2023-09-19T09:58:23;22.35;;;14.30;;
60416;SDS011;46263;44.726;10.396;2023-09-19T10:00:54;18.35;;;13.90;;
60416;SDS011;46263;44.726;10.396;2023-09-19T10:03:50;21.98;;;12.70;;
60416;SDS011;46263;44.726;10.396;2023-09-19T10:06:18;21.70;;;12.23;;
60416;SDS011;46263;44.726;10.396;2023-09-19T10:09:03;21.75;;;12.70;;
60416;SDS011;46263;44.726;10.396;2023-09-19T10:11:31;22.23;;;13.38;;
60416;SDS011;46263;44.726;10.396;2023-09-19T10:13:58;25.08;;;14.57;;
60416;SDS011;46263;44.726;10.396;2023-09-19T10:16:31;23.27;;;12.63;;
60416;SDS011;46263;44.726;10.396;2023-09-19T10:18:59;21.05;;;12.48;;
60416;SDS011;46263;44.726;10.396;2023-09-19T10:21:28;22.50;;;14.35;;
60416;SDS011;46263;44.726;10.396;2023-09-19T10:23:56;23.10;;;13.40;;
60416;SDS011;46263;44.726;10.396;2023-09-19T10:26:27;24.30;;;15.27;;
60416;SDS011;46263;44.726;10.396;2023-09-19T10:28:56;24.83;;;15.15;;
60416;SDS011;46263;44.726;10.396;2023-09-19T10:31:25;24.27;;;16.23;;
60416;SDS011;46263;44.726;10.396;2023-09-19T10:33:53;24.48;;;14.93;;
60416;SDS011;46263;44.726;10.396;2023-09-19T10:36:20;23.15;;;15.60;;
60416;SDS011;46263;44.726;10.396;2023-09-19T10:38:50;30.98;;;15.52;;
60416;SDS011;46263;44.726;10.396;2023-09-19T10:41:21;24.25;;;14.38;;
60416;SDS011;46263;44.726;10.396;2023-09-19T10:43:48;25.10;;;16.05;;
60416;SDS011;46263;44.726;10.396;2023-09-19T10:46:13;27.50;;;16.92;;
60416;SDS011;46263;44.726;10.396;2023-09-19T10:48:40;25.40;;;15.07;;
60416;SDS011;46263;44.726;10.396;2023-09-19T10:51:12;25.88;;;16.13;;
60416;SDS011;46263;44.726;10.396;2023-09-19T10:56:10;24.73;;;14.27;;
60416;SDS011;46263;44.726;10.396;2023-09-19T10:58:42;25.10;;;13.27;;
60416;SDS011;46263;44.726;10.396;2023-09-19T11:01:10;21.08;;;13.82;;
60416;SDS011;46263;44.726;10.396;2023-09-19T11:03:43;24.15;;;14.07;;
60416;SDS011;46263;44.726;10.396;2023-09-19T11:06:10;27.23;;;14.27;;
60416;SDS011;46263;44.726;10.396;2023-09-19T11:08:57;28.65;;;13.98;;
60416;SDS011;46263;44.726;10.396;2023-09-19T11:11:48;23.50;;;13.60;;
60416;SDS011;46263;44.726;10.396;2023-09-19T11:33:18;22.65;;;14.13;;
60416;SDS011;46263;44.726;10.396;2023-09-19T11:36:09;24.33;;;14.25;;
60416;SDS011;46263;44.726;10.396;2023-09-19T11:43:49;17.33;;;11.30;;
60416;SDS011;46263;44.726;10.396;2023-09-19T11:46:25;17.73;;;10.35;;
60416;SDS011;46263;44.726;10.396;2023-09-19T11:48:53;24.83;;;12.30;;
60416;SDS011;46263;44.726;10.396;2023-09-19T11:51:22;23.48;;;12.25;;
60416;SDS011;46263;44.726;10.396;2023-09-19T11:53:52;19.77;;;10.60;;
60416;SDS011;46263;44.726;10.396;2023-09-19T11:56:23;18.63;;;11.35;;
60416;SDS011;46263;44.726;10.396;2023-09-19T11:58:51;19.48;;;10.73;;
60416;SDS011;46263;44.726;10.396;2023-09-19T12:01:24;18.42;;;12.50;;
60416;SDS011;46263;44.726;10.396;2023-09-19T12:04:00;16.95;;;11.82;;
60416;SDS011;46263;44.726;10.396;2023-09-19T12:06:27;19.05;;;11.38;;
60416;SDS011;46263;44.726;10.396;2023-09-19T12:09:08;20.58;;;10.55;;
60416;SDS011;46263;44.726;10.396;2023-09-19T12:11:41;20.75;;;10.98;;
60416;SDS011;46263;44.726;10.396;2023-09-19T12:14:09;16.92;;;9.43;;
60416;SDS011;46263;44.726;10.396;2023-09-19T12:16:35;14.80;;;8.55;;
60416;SDS011;46263;44.726;10.396;2023-09-19T12:19:17;16.27;;;8.77;;
60416;SDS011;46263;44.726;10.396;2023-09-19T12:21:53;15.55;;;9.45;;
60416;SDS011;46263;44.726;10.396;2023-09-19T12:24:29;13.68;;;8.45;;
60416;SDS011;46263;44.726;10.396;2023-09-19T12:27:00;14.25;;;8.82;;
60416;SDS011;46263;44.726;10.396;2023-09-19T12:29:28;21.10;;;10.30;;
60416;SDS011;46263;44.726;10.396;2023-09-19T12:31:59;15.57;;;9.68;;
60416;SDS011;46263;44.726;10.396;2023-09-19T12:34:32;14.50;;;8.60;;
60416;SDS011;46263;44.726;10.396;2023-09-19T12:39:48;15.35;;;9.38;;
60416;SDS011;46263;44.726;10.396;2023-09-19T12:42:19;15.75;;;9.63;;
60416;SDS011;46263;44.726;10.396;2023-09-19T12:44:47;14.38;;;9.85;;
60416;SDS011;46263;44.726;10.396;2023-09-19T12:47:17;17.25;;;8.75;;
60416;SDS011;46263;44.726;10.396;2023-09-19T12:52:56;13.90;;;7.78;;
60416;SDS011;46263;44.726;10.396;2023-09-19T12:55:25;14.10;;;7.85;;
60416;SDS011;46263;44.726;10.396;2023-09-19T12:57:59;14.55;;;7.80;;
60416;SDS011;46263;44.726;10.396;2023-09-19T13:03:09;12.88;;;7.03;;
60416;SDS011;46263;44.726;10.396;2023-09-19T13:08:31;15.27;;;7.50;;
60416;SDS011;46263;44.726;10.396;2023-09-19T13:14:21;14.02;;;7.30;;
60416;SDS011;46263;44.726;10.396;2023-09-19T13:19:49;11.63;;;7.20;;
60416;SDS011;46263;44.726;10.396;2023-09-19T13:22:42;14.48;;;7.45;;
60416;SDS011;46263;44.726;10.396;2023-09-19T13:25:16;9.30;;;6.93;;
60416;SDS011;46263;44.726;10.396;2023-09-19T13:30:13;17.50;;;8.35;;
60416;SDS011;46263;44.726;10.396;2023-09-19T13:32:39;9.88;;;6.45;;
60416;SDS011;46263;44.726;10.396;2023-09-19T13:35:08;10.13;;;7.00;;
60416;SDS011;46263;44.726;10.396;2023-09-19T13:37:38;14.82;;;7.07;;
60416;SDS011;46263;44.726;10.396;2023-09-19T13:40:10;12.25;;;6.97;;
60416;SDS011;46263;44.726;10.396;2023-09-19T13:42:37;12.32;;;7.05;;
60416;SDS011;46263;44.726;10.396;2023-09-19T13:45:03;13.85;;;6.95;;
60416;SDS011;46263;44.726;10.396;2023-09-19T13:47:32;10.93;;;6.50;;
60416;SDS011;46263;44.726;10.396;2023-09-19T13:50:01;11.75;;;6.40;;
60416;SDS011;46263;44.726;10.396;2023-09-19T13:52:29;9.40;;;6.30;;
60416;SDS011;46263;44.726;10.396;2023-09-19T13:54:55;12.73;;;6.90;;
60416;SDS011;46263;44.726;10.396;2023-09-19T13:57:25;10.60;;;5.80;;
60416;SDS011;46263;44.726;10.396;2023-09-19T13:59:51;8.65;;;5.90;;
60416;SDS011;46263;44.726;10.396;2023-09-19T14:02:19;12.38;;;7.35;;
60416;SDS011;46263;44.726;10.396;2023-09-19T14:04:47;13.70;;;6.38;;
60416;SDS011;46263;44.726;10.396;2023-09-19T14:07:13;13.13;;;6.80;;
60416;SDS011;46263;44.726;10.396;2023-09-19T14:09:40;11.70;;;6.43;;
60416;SDS011;46263;44.726;10.396;2023-09-19T14:12:06;11.65;;;6.40;;
60416;SDS011;46263;44.726;10.396;2023-09-19T14:14:32;8.90;;;5.80;;
60416;SDS011;46263;44.726;10.396;2023-09-19T14:16:57;9.80;;;5.47;;
60416;SDS011;46263;44.726;10.396;2023-09-19T14:19:26;11.73;;;5.95;;
60416;SDS011;46263;44.726;10.396;2023-09-19T14:21:52;9.35;;;5.13;;
60416;SDS011;46263;44.726;10.396;2023-09-19T14:24:20;5.80;;;4.93;;
60416;SDS011;46263;44.726;10.396;2023-09-19T14:26:46;7.78;;;5.07;;
60416;SDS011;46263;44.726;10.396;2023-09-19T14:29:12;8.07;;;4.35;;
60416;SDS011;46263;44.726;10.396;2023-09-19T14:31:38;9.45;;;4.90;;
60416;SDS011;46263;44.726;10.396;2023-09-19T14:34:05;8.63;;;4.57;;
60416;SDS011;46263;44.726;10.396;2023-09-19T14:36:31;13.60;;;4.47;;
60416;SDS011;46263;44.726;10.396;2023-09-19T14:38:57;8.32;;;4.20;;
60416;SDS011;46263;44.726;10.396;2023-09-19T14:41:22;5.57;;;2.30;;
60416;SDS011;46263;44.726;10.396;2023-09-19T14:43:50;7.05;;;3.08;;
60416;SDS011;46263;44.726;10.396;2023-09-19T14:46:16;8.65;;;3.42;;
60416;SDS011;46263;44.726;10.396;2023-09-19T14:48:44;7.90;;;3.28;;
60416;SDS011;46263;44.726;10.396;2023-09-19T14:51:12;6.95;;;2.00;;
60416;SDS011;46263;44.726;10.396;2023-09-19T14:53:38;4.88;;;1.95;;
60416;SDS011;46263;44.726;10.396;2023-09-19T14:56:04;2.05;;;1.38;;
60416;SDS011;46263;44.726;10.396;2023-09-19T14:58:30;5.32;;;1.70;;
60416;SDS011;46263;44.726;10.396;2023-09-19T15:01:03;2.85;;;1.40;;
60416;SDS011;46263;44.726;10.396;2023-09-19T15:03:33;4.13;;;1.77;;
60416;SDS011;46263;44.726;10.396;2023-09-19T15:06:03;3.58;;;1.88;;
60416;SDS011;46263;44.726;10.396;2023-09-19T15:08:30;3.28;;;1.30;;
60416;SDS011;46263;44.726;10.396;2023-09-19T15:10:56;2.95;;;1.70;;
60416;SDS011;46263;44.726;10.396;2023-09-19T15:13:23;5.30;;;1.60;;
60416;SDS011;46263;44.726;10.396;2023-09-19T15:15:57;3.97;;;1.63;;
60416;SDS011;46263;44.726;10.396;2023-09-19T15:18:24;3.30;;;1.60;;
60416;SDS011;46263;44.726;10.396;2023-09-19T15:20:50;4.75;;;1.67;;
60416;SDS011;46263;44.726;10.396;2023-09-19T15:23:16;4.90;;;1.27;;
60416;SDS011;46263;44.726;10.396;2023-09-19T15:25:52;3.55;;;1.50;;
60416;SDS011;46263;44.726;10.396;2023-09-19T15:28:18;3.47;;;1.45;;